Latest Weather Observations for Darwin Harbour

IDD60801

Issued at 9:41 pm CST Tuesday 24 May 2022 (issued every 10 minutes, with the page automatically refreshed every 10 minutes)

About weather observations | Map of weather stations | Latest weather observations for NT | Other Formats
Station Details ID: 014072 Name: DARWIN NTC AWS Lat: -12.47 Lon: 130.85 Height: 0.0 m
Data from the previous 72 hours. | See also: Recent months for locations in Northern Territory
Date/Time
CST
Temp
°C
App
Temp
°C
Dew
Point
°C
Rel
Hum
%
Delta-T
°C
Wind Press
QNH
hPa
Press
MSL
hPa
Rain since
9am
mm
Dir  Spd
km/h
Gust
km/h
Spd
kts
Gust
kts
24/09:30pm 28.8 - - - - NNE 7 15 4 8 1013.2 1013.1 -
24/09:00pm 28.8 - - - - NE 11 20 6 11 1013.0 1012.9 -
24/08:30pm 28.8 - - - - NNE 11 17 6 9 1012.9 1012.8 -
24/08:00pm 28.9 - - - - NNE 11 19 6 10 1012.2 1012.1 -
24/07:30pm 29.0 - - - - NNE 11 17 6 9 1011.8 1011.7 -
24/07:00pm 29.2 - - - - NNE 9 17 5 9 1011.4 1011.3 -
24/06:30pm 29.5 - - - - NNE 9 15 5 8 1011.1 1011.0 -
24/06:00pm 29.9 - - - - N 7 15 4 8 1010.7 1010.6 -
24/05:30pm 30.6 - - - - NNW 7 15 4 8 1010.2 1010.1 -
24/05:00pm 30.8 - - - - NW 7 15 4 8 1010.0 1009.9 -
24/04:30pm 30.5 - - - - WNW 9 15 5 8 1009.8 1009.7 -
24/04:00pm 30.6 - - - - WNW 13 17 7 9 1009.7 1009.6 -
24/03:30pm 30.7 - - - - WNW 11 15 6 8 1009.8 1009.7 -
24/03:00pm 30.9 - - - - SSE 7 11 4 6 1009.9 1009.8 -
24/02:30pm 30.9 - - - - SE 9 13 5 7 1009.9 1009.8 -
24/02:00pm 31.2 - - - - SE 6 13 3 7 1010.3 1010.2 -
24/01:30pm 31.0 - - - - E 9 17 5 9 1010.7 1010.6 -
24/01:00pm 30.8 - - - - ESE 7 15 4 8 1011.1 1011.0 -
24/12:30pm 30.7 - - - - ENE 13 20 7 11 1011.6 1011.5 -
24/12:00pm 30.5 - - - - ENE 11 20 6 11 1012.0 1011.9 -
24/11:30am 29.9 - - - - E 15 22 8 12 1012.3 1012.2 -
24/11:00am 29.8 - - - - ENE 13 20 7 11 1012.7 1012.6 -
24/10:30am 28.9 - - - - ENE 19 28 10 15 1012.9 1012.8 -
24/10:00am 28.3 - - - - ENE 19 28 10 15 1012.8 1012.7 -
24/09:30am 27.8 - - - - ENE 15 24 8 13 1012.7 1012.6 -
24/09:00am 27.3 - - - - ENE 19 30 10 16 1012.4 1012.3 -
24/08:30am 26.7 - - - - ENE 13 24 7 13 1012.3 1012.2 -
24/08:00am 26.3 - - - - ENE 11 19 6 10 1012.1 1012.0 -
24/07:30am 25.6 - - - - ENE 11 17 6 9 1012.0 1011.9 -
24/07:00am 26.4 - - - - E 15 30 8 16 1011.6 1011.5 -
24/06:30am 26.6 - - - - E 6 11 3 6 1011.3 1011.2 -
24/06:00am 26.4 - - - - ESE 4 7 2 4 1011.1 1011.0 -
24/05:30am 26.5 - - - - E 9 13 5 7 1010.9 1010.8 -
24/05:00am 26.3 - - - - E 13 19 7 10 1010.8 1010.7 -
24/04:30am 26.7 - - - - E 4 9 2 5 1010.6 1010.5 -
24/04:00am 27.5 - - - - ESE 6 7 3 4 1010.3 1010.2 -
24/03:30am 27.4 - - - - SE 2 4 1 2 1010.4 1010.3 -
24/03:00am 27.4 - - - - SSE 4 6 2 3 1010.6 1010.5 -
24/02:30am 26.6 - - - - ENE 2 4 1 2 1010.6 1010.5 -
24/02:00am 26.4 - - - - NE 4 11 2 6 1010.9 1010.8 -
24/01:30am 26.2 - - - - ENE 7 24 4 13 1011.0 1010.9 -
24/01:00am 27.9 - - - - SW 9 13 5 7 1010.8 1010.7 -
24/12:30am 27.8 - - - - SW 9 11 5 6 1011.1 1011.0 -
24/12:00am 28.1 - - - - SW 7 11 4 6 1011.3 1011.2 -
 
Date/Time
CST
Temp
°C
App
Temp
°C
Dew
Point
°C
Rel
Hum
%
Delta-T
°C
Wind Press
QNH
hPa
Press
MSL
hPa
Rain since
9am
mm
Dir  Spd
km/h
Gust
km/h
Spd
kts
Gust
kts
23/11:30pm 27.9 - - - - WSW 7 13 4 7 1011.4 1011.3 -
23/11:00pm 28.5 - - - - WSW 2 4 1 2 1011.5 1011.4 -
23/10:30pm 28.4 - - - - CALM 0 2 0 1 1011.6 1011.5 -
23/10:00pm 28.5 - - - - SSE 4 6 2 3 1011.7 1011.6 -
23/09:30pm 28.5 - - - - ENE 2 6 1 3 1011.5 1011.4 -
23/09:00pm 28.8 - - - - NE 4 9 2 5 1011.3 1011.2 -
23/08:30pm 28.7 - - - - NNE 2 9 1 5 1010.9 1010.8 -
23/08:00pm 28.8 - - - - NE 7 15 4 8 1010.4 1010.3 -
23/07:30pm 29.3 - - - - NE 6 17 3 9 1010.0 1009.9 -
23/07:00pm 30.8 - - - - SSE 2 4 1 2 1009.7 1009.6 -
23/06:30pm 31.3 - - - - ENE 6 9 3 5 1009.3 1009.2 -
23/06:00pm 32.0 - - - - ENE 7 15 4 8 1008.9 1008.8 -
23/05:30pm 31.9 - - - - E 9 13 5 7 1008.7 1008.6 -
23/05:00pm 32.4 - - - - E 17 20 9 11 1008.5 1008.4 -
23/04:30pm 32.3 - - - - E 13 19 7 10 1008.4 1008.3 -
23/04:00pm 32.2 - - - - E 13 19 7 10 1008.4 1008.3 -
23/03:30pm 32.2 - - - - E 11 17 6 9 1008.5 1008.4 -
23/03:00pm 31.9 - - - - E 13 19 7 10 1008.9 1008.8 -
23/02:30pm 31.8 - - - - E 13 19 7 10 1009.2 1009.1 -
23/02:00pm 31.7 - - - - E 11 17 6 9 1009.6 1009.5 -
23/01:30pm 31.6 - - - - E 13 19 7 10 1010.1 1010.0 -
23/01:00pm 30.9 - - - - ESE 19 26 10 14 1010.6 1010.5 -
23/12:30pm 30.5 - - - - ESE 17 24 9 13 1011.0 1010.9 -
23/12:00pm 31.0 - - - - E 19 30 10 16 1011.3 1011.2 -
23/11:30am 30.9 - - - - E 19 28 10 15 1011.6 1011.5 -
23/11:00am 30.3 - - - - E 15 20 8 11 1012.0 1011.9 -
23/10:30am 29.6 - - - - E 13 19 7 10 1012.4 1012.3 -
23/10:00am 28.9 - - - - ENE 9 19 5 10 1012.6 1012.5 -
23/09:30am 27.6 - - - - E 9 15 5 8 1012.6 1012.5 -
23/09:00am 26.9 - - - - ENE 9 13 5 7 1012.5 1012.4 -
23/08:30am 26.0 - - - - E 9 13 5 7 1012.3 1012.2 -
23/08:00am 25.7 - - - - E 9 13 5 7 1011.9 1011.8 -
23/07:30am 25.7 - - - - E 9 15 5 8 1011.5 1011.4 -
23/07:00am 26.1 - - - - SE 15 19 8 10 1011.3 1011.2 -
23/06:30am 26.7 - - - - SE 15 19 8 10 1010.7 1010.6 -
23/06:00am 26.7 - - - - ESE 11 17 6 9 1010.5 1010.4 -
23/05:30am 27.0 - - - - SE 15 22 8 12 1010.4 1010.3 -
23/05:00am 27.0 - - - - SE 11 15 6 8 1010.1 1010.0 -
23/04:30am 26.5 - - - - E 7 13 4 7 1009.9 1009.8 -
23/04:00am 25.8 - - - - ENE 4 13 2 7 1010.0 1009.9 -
23/03:30am 27.5 - - - - SSW 7 9 4 5 1009.9 1009.8 -
23/03:00am 27.7 - - - - ESE 6 9 3 5 1010.0 1009.9 -
23/02:30am 27.7 - - - - SSW 13 17 7 9 1010.1 1010.0 -
23/02:00am 27.6 - - - - SSW 15 19 8 10 1010.1 1010.0 -
23/01:30am 27.5 - - - - SW 13 15 7 8 1010.1 1010.0 -
23/01:00am 27.9 - - - - SW 15 19 8 10 1010.4 1010.3 -
23/12:30am 27.9 - - - - SW 15 17 8 9 1010.6 1010.5 -
23/12:00am 27.8 - - - - SW 15 17 8 9 1010.7 1010.6 -
 
Date/Time
CST
Temp
°C
App
Temp
°C
Dew
Point
°C
Rel
Hum
%
Delta-T
°C
Wind Press
QNH
hPa
Press
MSL
hPa
Rain since
9am
mm
Dir  Spd
km/h
Gust
km/h
Spd
kts
Gust
kts
22/11:30pm 27.6 - - - - SW 15 19 8 10 1010.8 1010.7 -
22/11:00pm 28.6 - - - - SSE 2 4 1 2 1010.6 1010.5 -
22/10:30pm 28.7 - - - - SSE 2 4 1 2 1010.6 1010.5 -
22/10:00pm 28.7 - - - - S 6 7 3 4 1010.6 1010.5 -
22/09:30pm 28.5 - - - - ENE 4 6 2 3 1010.5 1010.4 -
22/09:00pm 28.8 - - - - NE 6 13 3 7 1010.3 1010.2 -
22/08:30pm 28.8 - - - - NE 7 13 4 7 1010.1 1010.0 -
22/08:00pm 28.9 - - - - NE 7 17 4 9 1009.7 1009.6 -
22/07:30pm 29.4 - - - - NE 6 15 3 8 1009.3 1009.2 -
22/07:00pm 29.7 - - - - NNE 11 17 6 9 1009.0 1008.9 -
22/06:30pm 31.1 - - - - NE 4 9 2 5 1008.7 1008.6 -
22/06:00pm 31.9 - - - - ENE 6 9 3 5 1008.4 1008.3 -
22/05:30pm 31.9 - - - - E 11 15 6 8 1008.1 1008.0 -
22/05:00pm 32.1 - - - - ESE 7 13 4 7 1008.0 1007.9 -
22/04:30pm 32.1 - - - - E 9 17 5 9 1007.9 1007.8 -
22/04:00pm 32.0 - - - - E 13 19 7 10 1008.0 1007.9 -
22/03:30pm 31.8 - - - - ESE 13 19 7 10 1008.2 1008.1 -
22/03:00pm 31.6 - - - - E 15 19 8 10 1008.5 1008.4 -
22/02:30pm 31.2 - - - - E 11 20 6 11 1008.8 1008.7 -
22/02:00pm 31.1 - - - - ESE 17 22 9 12 1009.3 1009.2 -
22/01:30pm 30.8 - - - - ESE 15 24 8 13 1009.8 1009.7 -
22/01:00pm 30.2 - - - - ESE 17 22 9 12 1010.2 1010.1 -
22/12:30pm 30.0 - - - - ESE 19 26 10 14 1010.8 1010.7 -
22/12:00pm 29.6 - - - - ESE 19 24 10 13 1011.3 1011.2 -
22/11:30am 29.3 - - - - ESE 19 28 10 15 1011.7 1011.6 -
22/11:00am 28.8 - - - - ESE 17 22 9 12 1011.9 1011.8 -
22/10:30am 28.4 - - - - SE 15 22 8 12 1012.2 1012.1 -
22/10:00am 27.4 - - - - SE 20 24 11 13 1012.3 1012.2 -
22/09:30am 26.9 - - - - SE 20 26 11 14 1012.2 1012.1 -
22/09:00am 26.7 - - - - ESE 20 28 11 15 1012.1 1012.0 -
22/08:30am 26.6 - - - - ESE 13 20 7 11 1012.0 1011.9 -
22/08:00am 26.0 - - - - SE 17 20 9 11 1011.8 1011.7 -
22/07:30am 25.8 - - - - SE 15 19 8 10 1011.3 1011.2 -
22/07:00am 25.9 - - - - SE 15 19 8 10 1011.0 1010.9 -
22/06:30am 25.7 - - - - SE 11 15 6 8 1010.8 1010.7 -
22/06:00am 26.1 - - - - SE 9 13 5 7 1010.4 1010.3 -
22/05:30am 26.4 - - - - SE 9 13 5 7 1010.1 1010.0 -
22/05:00am 27.0 - - - - ENE 4 7 2 4 1010.0 1009.9 -
22/04:30am 26.9 - - - - ENE 6 9 3 5 1009.9 1009.8 -
22/04:00am 27.1 - - - - ENE 6 13 3 7 1009.9 1009.8 -
22/03:30am 27.5 - - - - NE 4 7 2 4 1009.7 1009.6 -
22/03:00am 28.3 - - - - NNE 6 7 3 4 1009.9 1009.8 -
22/02:30am 27.1 - - - - ENE 4 7 2 4 1010.1 1010.0 -
22/02:00am 27.4 - - - - NE 4 9 2 5 1010.2 1010.1 -
22/01:30am 27.4 - - - - NE 4 9 2 5 1010.3 1010.2 -
22/01:00am 27.9 - - - - NE 4 11 2 6 1010.4 1010.3 -
22/12:30am 28.6 - - - - WSW 11 15 6 8 1010.4 1010.3 -
22/12:00am 28.8 - - - - WSW 11 13 6 7 1010.5 1010.4 -
 
Date/Time
CST
Temp
°C
App
Temp
°C
Dew
Point
°C
Rel
Hum
%
Delta-T
°C
Wind Press
QNH
hPa
Press
MSL
hPa
Rain since
9am
mm
Dir  Spd
km/h
Gust
km/h
Spd
kts
Gust
kts
21/11:30pm 28.8 - - - - WSW 9 11 5 6 1010.7 1010.6 -
21/11:00pm 28.9 - - - - WSW 11 15 6 8 1010.7 1010.6 -
21/10:30pm 28.5 - - - - SW 13 19 7 10 1010.7 1010.6 -
21/10:00pm 29.2 - - - - WSW 9 17 5 9 1010.7 1010.6 -

Other formats

Comma delimited format used in spreadsheet applications
http://www.bom.gov.au/fwo/IDD60801/IDD60801.95122.axf

JavaScript Object Notation format (JSON) in row-major order
http://www.bom.gov.au/fwo/IDD60801/IDD60801.95122.json

Data quality

Most of these data are generated automatically and are frequently updated. Quality checks on data are not normally performed. It is possible for incorrect values to appear. Refer to information at About Latest Weather Observations and please check the disclaimer before using these data.